sensor_id;sensor_type;location;lat;lon;timestamp;P1;durP1;ratioP1;P2;durP2;ratioP2
50267;SDS011;36153;50.960;6.220;2023-04-25T00:02:07;11.27;;;3.17;;
50267;SDS011;36153;50.960;6.220;2023-04-25T00:05:08;9.65;;;2.80;;
50267;SDS011;36153;50.960;6.220;2023-04-25T00:08:09;8.73;;;3.58;;
50267;SDS011;36153;50.960;6.220;2023-04-25T00:11:09;7.45;;;2.65;;
50267;SDS011;36153;50.960;6.220;2023-04-25T00:14:10;7.85;;;3.15;;
50267;SDS011;36153;50.960;6.220;2023-04-25T00:17:10;6.93;;;3.03;;
50267;SDS011;36153;50.960;6.220;2023-04-25T00:20:11;7.25;;;2.60;;
50267;SDS011;36153;50.960;6.220;2023-04-25T00:23:12;7.93;;;2.83;;
50267;SDS011;36153;50.960;6.220;2023-04-25T00:26:17;8.32;;;3.05;;
50267;SDS011;36153;50.960;6.220;2023-04-25T00:29:17;7.35;;;2.45;;
50267;SDS011;36153;50.960;6.220;2023-04-25T00:32:18;11.50;;;3.42;;
50267;SDS011;36153;50.960;6.220;2023-04-25T00:35:18;6.80;;;2.75;;
50267;SDS011;36153;50.960;6.220;2023-04-25T00:38:19;11.02;;;3.00;;
50267;SDS011;36153;50.960;6.220;2023-04-25T00:41:19;6.78;;;2.75;;
50267;SDS011;36153;50.960;6.220;2023-04-25T00:44:19;9.10;;;3.00;;
50267;SDS011;36153;50.960;6.220;2023-04-25T00:47:20;8.73;;;2.83;;
50267;SDS011;36153;50.960;6.220;2023-04-25T00:50:21;6.70;;;2.95;;
50267;SDS011;36153;50.960;6.220;2023-04-25T00:53:22;8.57;;;2.97;;
50267;SDS011;36153;50.960;6.220;2023-04-25T00:56:23;8.68;;;3.33;;
50267;SDS011;36153;50.960;6.220;2023-04-25T00:59:25;10.63;;;3.88;;
50267;SDS011;36153;50.960;6.220;2023-04-25T01:02:25;5.93;;;2.50;;
50267;SDS011;36153;50.960;6.220;2023-04-25T01:05:27;10.20;;;2.72;;
50267;SDS011;36153;50.960;6.220;2023-04-25T01:08:27;5.50;;;2.30;;
50267;SDS011;36153;50.960;6.220;2023-04-25T01:11:28;10.52;;;3.08;;
50267;SDS011;36153;50.960;6.220;2023-04-25T01:14:28;6.80;;;2.80;;
50267;SDS011;36153;50.960;6.220;2023-04-25T01:17:29;8.00;;;2.83;;
50267;SDS011;36153;50.960;6.220;2023-04-25T01:20:32;11.80;;;2.72;;
50267;SDS011;36153;50.960;6.220;2023-04-25T01:23:33;9.63;;;2.90;;
50267;SDS011;36153;50.960;6.220;2023-04-25T01:26:33;8.27;;;3.10;;
50267;SDS011;36153;50.960;6.220;2023-04-25T01:29:35;10.38;;;3.22;;
50267;SDS011;36153;50.960;6.220;2023-04-25T01:32:36;6.60;;;2.80;;
50267;SDS011;36153;50.960;6.220;2023-04-25T01:35:39;6.07;;;2.95;;
50267;SDS011;36153;50.960;6.220;2023-04-25T01:38:40;6.60;;;3.30;;
50267;SDS011;36153;50.960;6.220;2023-04-25T01:41:41;8.27;;;3.30;;
50267;SDS011;36153;50.960;6.220;2023-04-25T01:44:42;13.60;;;3.60;;
50267;SDS011;36153;50.960;6.220;2023-04-25T01:47:42;17.80;;;3.28;;
50267;SDS011;36153;50.960;6.220;2023-04-25T01:50:47;8.90;;;3.13;;
50267;SDS011;36153;50.960;6.220;2023-04-25T01:53:47;7.30;;;2.95;;
50267;SDS011;36153;50.960;6.220;2023-04-25T01:56:51;6.75;;;2.78;;
50267;SDS011;36153;50.960;6.220;2023-04-25T01:59:51;11.50;;;3.20;;
50267;SDS011;36153;50.960;6.220;2023-04-25T02:02:58;7.38;;;2.22;;
50267;SDS011;36153;50.960;6.220;2023-04-25T02:05:58;5.53;;;3.00;;
50267;SDS011;36153;50.960;6.220;2023-04-25T02:08:59;11.90;;;3.50;;
50267;SDS011;36153;50.960;6.220;2023-04-25T02:11:59;5.20;;;2.85;;
50267;SDS011;36153;50.960;6.220;2023-04-25T02:15:00;6.47;;;2.88;;
50267;SDS011;36153;50.960;6.220;2023-04-25T02:18:01;9.00;;;3.25;;
50267;SDS011;36153;50.960;6.220;2023-04-25T02:21:01;9.27;;;2.83;;
50267;SDS011;36153;50.960;6.220;2023-04-25T02:24:03;7.13;;;2.33;;
50267;SDS011;36153;50.960;6.220;2023-04-25T02:27:04;5.85;;;2.65;;
50267;SDS011;36153;50.960;6.220;2023-04-25T02:30:05;8.30;;;2.40;;
50267;SDS011;36153;50.960;6.220;2023-04-25T02:33:06;9.52;;;3.20;;
50267;SDS011;36153;50.960;6.220;2023-04-25T02:36:06;8.48;;;2.28;;
50267;SDS011;36153;50.960;6.220;2023-04-25T02:39:07;6.40;;;2.78;;
50267;SDS011;36153;50.960;6.220;2023-04-25T02:42:07;6.40;;;2.70;;
50267;SDS011;36153;50.960;6.220;2023-04-25T02:45:08;6.43;;;2.45;;
50267;SDS011;36153;50.960;6.220;2023-04-25T02:48:09;9.80;;;3.28;;
50267;SDS011;36153;50.960;6.220;2023-04-25T02:51:09;8.43;;;3.35;;
50267;SDS011;36153;50.960;6.220;2023-04-25T02:54:09;8.40;;;2.92;;
50267;SDS011;36153;50.960;6.220;2023-04-25T02:57:10;5.32;;;2.90;;
50267;SDS011;36153;50.960;6.220;2023-04-25T03:00:10;9.48;;;3.38;;
50267;SDS011;36153;50.960;6.220;2023-04-25T03:03:11;12.15;;;3.20;;
50267;SDS011;36153;50.960;6.220;2023-04-25T03:06:12;10.55;;;3.50;;
50267;SDS011;36153;50.960;6.220;2023-04-25T03:09:12;8.32;;;3.08;;
50267;SDS011;36153;50.960;6.220;2023-04-25T03:12:12;10.13;;;2.88;;
50267;SDS011;36153;50.960;6.220;2023-04-25T03:15:13;7.78;;;2.67;;
50267;SDS011;36153;50.960;6.220;2023-04-25T03:18:13;4.43;;;2.55;;
50267;SDS011;36153;50.960;6.220;2023-04-25T03:21:14;6.93;;;2.30;;
50267;SDS011;36153;50.960;6.220;2023-04-25T03:24:14;7.43;;;2.70;;
50267;SDS011;36153;50.960;6.220;2023-04-25T03:27:15;6.38;;;2.97;;
50267;SDS011;36153;50.960;6.220;2023-04-25T03:30:15;6.65;;;2.53;;
50267;SDS011;36153;50.960;6.220;2023-04-25T03:33:16;10.13;;;2.80;;
50267;SDS011;36153;50.960;6.220;2023-04-25T03:36:16;8.02;;;2.53;;
50267;SDS011;36153;50.960;6.220;2023-04-25T03:39:17;12.00;;;3.15;;
50267;SDS011;36153;50.960;6.220;2023-04-25T03:42:17;9.48;;;2.67;;
50267;SDS011;36153;50.960;6.220;2023-04-25T03:45:17;9.25;;;3.17;;
50267;SDS011;36153;50.960;6.220;2023-04-25T03:48:18;6.30;;;2.47;;
50267;SDS011;36153;50.960;6.220;2023-04-25T03:51:21;9.65;;;3.28;;
50267;SDS011;36153;50.960;6.220;2023-04-25T03:54:21;7.35;;;2.92;;
50267;SDS011;36153;50.960;6.220;2023-04-25T03:57:22;9.50;;;3.50;;
50267;SDS011;36153;50.960;6.220;2023-04-25T04:00:22;9.48;;;3.10;;
50267;SDS011;36153;50.960;6.220;2023-04-25T04:03:23;10.70;;;3.72;;
50267;SDS011;36153;50.960;6.220;2023-04-25T04:06:23;9.90;;;3.00;;
50267;SDS011;36153;50.960;6.220;2023-04-25T04:09:23;8.57;;;2.38;;
50267;SDS011;36153;50.960;6.220;2023-04-25T04:12:24;4.68;;;2.15;;
50267;SDS011;36153;50.960;6.220;2023-04-25T04:15:24;16.25;;;3.00;;
50267;SDS011;36153;50.960;6.220;2023-04-25T04:18:25;8.05;;;3.45;;
50267;SDS011;36153;50.960;6.220;2023-04-25T04:21:25;7.20;;;3.70;;
50267;SDS011;36153;50.960;6.220;2023-04-25T04:24:27;7.85;;;4.38;;
50267;SDS011;36153;50.960;6.220;2023-04-25T04:27:27;6.80;;;3.22;;
50267;SDS011;36153;50.960;6.220;2023-04-25T04:30:29;14.45;;;3.20;;
50267;SDS011;36153;50.960;6.220;2023-04-25T04:33:30;7.93;;;2.92;;
50267;SDS011;36153;50.960;6.220;2023-04-25T04:36:31;5.53;;;2.25;;
50267;SDS011;36153;50.960;6.220;2023-04-25T04:39:31;9.18;;;2.85;;
50267;SDS011;36153;50.960;6.220;2023-04-25T04:42:32;11.45;;;4.30;;
50267;SDS011;36153;50.960;6.220;2023-04-25T04:45:33;11.13;;;3.40;;
50267;SDS011;36153;50.960;6.220;2023-04-25T04:48:33;9.63;;;3.58;;
50267;SDS011;36153;50.960;6.220;2023-04-25T04:51:34;8.90;;;3.40;;
50267;SDS011;36153;50.960;6.220;2023-04-25T04:54:34;10.73;;;2.63;;
50267;SDS011;36153;50.960;6.220;2023-04-25T04:57:35;10.30;;;3.25;;
50267;SDS011;36153;50.960;6.220;2023-04-25T05:00:36;7.65;;;3.13;;
50267;SDS011;36153;50.960;6.220;2023-04-25T05:03:36;6.82;;;2.83;;
50267;SDS011;36153;50.960;6.220;2023-04-25T05:06:36;10.23;;;3.28;;
50267;SDS011;36153;50.960;6.220;2023-04-25T05:09:37;9.95;;;3.05;;
50267;SDS011;36153;50.960;6.220;2023-04-25T05:12:37;3.67;;;2.08;;
50267;SDS011;36153;50.960;6.220;2023-04-25T05:15:37;9.90;;;2.50;;
50267;SDS011;36153;50.960;6.220;2023-04-25T05:18:38;11.40;;;3.17;;
50267;SDS011;36153;50.960;6.220;2023-04-25T05:21:40;10.82;;;3.88;;
50267;SDS011;36153;50.960;6.220;2023-04-25T05:24:40;10.48;;;3.30;;
50267;SDS011;36153;50.960;6.220;2023-04-25T05:27:40;9.57;;;3.15;;
50267;SDS011;36153;50.960;6.220;2023-04-25T05:30:41;7.07;;;2.47;;
50267;SDS011;36153;50.960;6.220;2023-04-25T05:33:41;7.97;;;2.72;;
50267;SDS011;36153;50.960;6.220;2023-04-25T05:36:41;9.68;;;3.65;;
50267;SDS011;36153;50.960;6.220;2023-04-25T05:39:42;10.43;;;2.65;;
50267;SDS011;36153;50.960;6.220;2023-04-25T05:42:42;8.23;;;2.70;;
50267;SDS011;36153;50.960;6.220;2023-04-25T05:45:42;11.55;;;3.65;;
50267;SDS011;36153;50.960;6.220;2023-04-25T05:48:43;8.85;;;2.83;;
50267;SDS011;36153;50.960;6.220;2023-04-25T05:51:43;9.93;;;3.15;;
50267;SDS011;36153;50.960;6.220;2023-04-25T05:54:44;13.18;;;3.58;;
50267;SDS011;36153;50.960;6.220;2023-04-25T05:57:44;9.10;;;3.03;;
50267;SDS011;36153;50.960;6.220;2023-04-25T06:00:45;8.98;;;2.90;;
50267;SDS011;36153;50.960;6.220;2023-04-25T06:03:49;9.65;;;2.75;;
50267;SDS011;36153;50.960;6.220;2023-04-25T06:06:49;9.35;;;3.08;;
50267;SDS011;36153;50.960;6.220;2023-04-25T06:09:50;11.10;;;3.10;;
50267;SDS011;36153;50.960;6.220;2023-04-25T06:12:51;7.72;;;3.30;;
50267;SDS011;36153;50.960;6.220;2023-04-25T06:15:51;7.13;;;3.00;;
50267;SDS011;36153;50.960;6.220;2023-04-25T06:18:51;8.63;;;3.03;;
50267;SDS011;36153;50.960;6.220;2023-04-25T06:21:58;7.90;;;3.20;;
50267;SDS011;36153;50.960;6.220;2023-04-25T06:24:59;8.45;;;3.35;;
50267;SDS011;36153;50.960;6.220;2023-04-25T06:28:00;11.95;;;3.72;;
50267;SDS011;36153;50.960;6.220;2023-04-25T06:31:00;10.65;;;2.50;;
50267;SDS011;36153;50.960;6.220;2023-04-25T06:34:00;8.15;;;2.50;;
50267;SDS011;36153;50.960;6.220;2023-04-25T06:37:01;5.70;;;1.92;;
50267;SDS011;36153;50.960;6.220;2023-04-25T06:40:01;7.95;;;2.90;;
50267;SDS011;36153;50.960;6.220;2023-04-25T06:43:02;7.40;;;2.97;;
50267;SDS011;36153;50.960;6.220;2023-04-25T06:46:02;8.60;;;3.00;;
50267;SDS011;36153;50.960;6.220;2023-04-25T06:49:03;9.93;;;2.67;;
50267;SDS011;36153;50.960;6.220;2023-04-25T06:52:03;3.47;;;1.80;;
50267;SDS011;36153;50.960;6.220;2023-04-25T06:55:06;5.57;;;2.05;;
50267;SDS011;36153;50.960;6.220;2023-04-25T06:58:07;7.38;;;2.25;;
50267;SDS011;36153;50.960;6.220;2023-04-25T07:01:07;17.65;;;4.28;;
50267;SDS011;36153;50.960;6.220;2023-04-25T07:04:07;7.00;;;1.77;;
50267;SDS011;36153;50.960;6.220;2023-04-25T07:07:08;11.63;;;3.85;;
50267;SDS011;36153;50.960;6.220;2023-04-25T07:10:08;6.18;;;2.40;;
50267;SDS011;36153;50.960;6.220;2023-04-25T07:13:09;7.22;;;2.42;;
50267;SDS011;36153;50.960;6.220;2023-04-25T07:16:09;5.80;;;1.60;;
50267;SDS011;36153;50.960;6.220;2023-04-25T07:19:09;4.75;;;2.13;;
50267;SDS011;36153;50.960;6.220;2023-04-25T07:22:10;10.02;;;1.77;;
50267;SDS011;36153;50.960;6.220;2023-04-25T07:25:10;6.68;;;2.33;;
50267;SDS011;36153;50.960;6.220;2023-04-25T07:28:11;6.68;;;2.78;;
50267;SDS011;36153;50.960;6.220;2023-04-25T07:31:11;7.90;;;2.35;;
50267;SDS011;36153;50.960;6.220;2023-04-25T07:34:12;6.15;;;2.20;;
50267;SDS011;36153;50.960;6.220;2023-04-25T07:37:12;4.20;;;1.60;;
50267;SDS011;36153;50.960;6.220;2023-04-25T07:40:14;5.32;;;1.55;;
50267;SDS011;36153;50.960;6.220;2023-04-25T07:43:16;4.60;;;1.55;;
50267;SDS011;36153;50.960;6.220;2023-04-25T07:46:16;2.78;;;1.20;;
50267;SDS011;36153;50.960;6.220;2023-04-25T07:49:20;4.47;;;1.50;;
50267;SDS011;36153;50.960;6.220;2023-04-25T07:52:21;4.72;;;1.20;;
50267;SDS011;36153;50.960;6.220;2023-04-25T07:55:25;9.40;;;1.90;;
50267;SDS011;36153;50.960;6.220;2023-04-25T07:58:25;6.50;;;1.05;;
50267;SDS011;36153;50.960;6.220;2023-04-25T08:05:28;5.93;;;1.13;;
50267;SDS011;36153;50.960;6.220;2023-04-25T08:08:29;8.23;;;2.05;;
50267;SDS011;36153;50.960;6.220;2023-04-25T08:11:29;7.95;;;1.50;;
50267;SDS011;36153;50.960;6.220;2023-04-25T08:14:30;3.95;;;1.60;;
50267;SDS011;36153;50.960;6.220;2023-04-25T08:17:35;5.78;;;1.20;;
50267;SDS011;36153;50.960;6.220;2023-04-25T08:20:36;4.93;;;1.38;;
50267;SDS011;36153;50.960;6.220;2023-04-25T08:23:36;3.65;;;1.27;;
50267;SDS011;36153;50.960;6.220;2023-04-25T08:26:37;2.92;;;1.45;;
50267;SDS011;36153;50.960;6.220;2023-04-25T08:29:38;5.35;;;1.40;;
50267;SDS011;36153;50.960;6.220;2023-04-25T08:32:39;4.25;;;1.40;;
50267;SDS011;36153;50.960;6.220;2023-04-25T08:35:39;7.00;;;1.90;;
50267;SDS011;36153;50.960;6.220;2023-04-25T08:38:40;2.90;;;1.23;;
50267;SDS011;36153;50.960;6.220;2023-04-25T08:41:40;5.80;;;1.65;;
50267;SDS011;36153;50.960;6.220;2023-04-25T08:44:41;11.10;;;2.42;;
50267;SDS011;36153;50.960;6.220;2023-04-25T08:47:41;8.55;;;1.85;;
50267;SDS011;36153;50.960;6.220;2023-04-25T08:50:50;5.00;;;1.65;;
50267;SDS011;36153;50.960;6.220;2023-04-25T08:53:52;6.45;;;1.75;;
50267;SDS011;36153;50.960;6.220;2023-04-25T08:56:52;2.95;;;2.03;;
50267;SDS011;36153;50.960;6.220;2023-04-25T08:59:54;6.82;;;1.50;;
50267;SDS011;36153;50.960;6.220;2023-04-25T09:02:57;5.05;;;1.52;;
50267;SDS011;36153;50.960;6.220;2023-04-25T09:05:58;6.85;;;1.85;;
50267;SDS011;36153;50.960;6.220;2023-04-25T09:09:03;4.65;;;1.73;;
50267;SDS011;36153;50.960;6.220;2023-04-25T09:12:07;8.10;;;2.20;;
50267;SDS011;36153;50.960;6.220;2023-04-25T09:15:09;4.68;;;1.30;;
50267;SDS011;36153;50.960;6.220;2023-04-25T09:18:11;4.38;;;1.38;;
50267;SDS011;36153;50.960;6.220;2023-04-25T09:21:11;6.75;;;1.60;;
50267;SDS011;36153;50.960;6.220;2023-04-25T09:24:12;8.68;;;2.47;;
50267;SDS011;36153;50.960;6.220;2023-04-25T09:27:17;10.45;;;2.30;;
50267;SDS011;36153;50.960;6.220;2023-04-25T09:30:19;8.63;;;1.77;;
50267;SDS011;36153;50.960;6.220;2023-04-25T09:33:31;4.65;;;1.90;;
50267;SDS011;36153;50.960;6.220;2023-04-25T09:36:32;3.85;;;1.30;;
50267;SDS011;36153;50.960;6.220;2023-04-25T09:39:34;6.43;;;1.65;;
50267;SDS011;36153;50.960;6.220;2023-04-25T09:42:35;3.47;;;1.60;;
50267;SDS011;36153;50.960;6.220;2023-04-25T09:45:40;5.72;;;1.83;;
50267;SDS011;36153;50.960;6.220;2023-04-25T09:48:49;6.28;;;2.30;;
50267;SDS011;36153;50.960;6.220;2023-04-25T09:51:56;3.78;;;1.33;;
50267;SDS011;36153;50.960;6.220;2023-04-25T09:54:57;4.45;;;1.55;;
50267;SDS011;36153;50.960;6.220;2023-04-25T09:57:58;5.05;;;1.67;;
50267;SDS011;36153;50.960;6.220;2023-04-25T10:01:07;4.47;;;1.75;;
50267;SDS011;36153;50.960;6.220;2023-04-25T10:04:10;4.28;;;1.27;;
50267;SDS011;36153;50.960;6.220;2023-04-25T10:07:11;3.97;;;1.50;;
50267;SDS011;36153;50.960;6.220;2023-04-25T10:10:12;4.57;;;1.45;;
50267;SDS011;36153;50.960;6.220;2023-04-25T10:13:13;4.35;;;1.38;;
50267;SDS011;36153;50.960;6.220;2023-04-25T10:16:14;10.30;;;2.03;;
50267;SDS011;36153;50.960;6.220;2023-04-25T10:19:16;3.85;;;1.48;;
50267;SDS011;36153;50.960;6.220;2023-04-25T10:22:18;5.30;;;1.42;;
50267;SDS011;36153;50.960;6.220;2023-04-25T10:25:23;4.88;;;1.80;;
50267;SDS011;36153;50.960;6.220;2023-04-25T10:28:24;3.60;;;1.38;;
50267;SDS011;36153;50.960;6.220;2023-04-25T10:31:25;4.07;;;1.45;;
50267;SDS011;36153;50.960;6.220;2023-04-25T10:34:41;4.85;;;1.80;;
50267;SDS011;36153;50.960;6.220;2023-04-25T10:41:09;5.95;;;1.60;;
50267;SDS011;36153;50.960;6.220;2023-04-25T10:44:10;5.18;;;1.75;;
50267;SDS011;36153;50.960;6.220;2023-04-25T10:47:11;5.57;;;1.35;;
50267;SDS011;36153;50.960;6.220;2023-04-25T10:50:11;6.65;;;1.52;;
50267;SDS011;36153;50.960;6.220;2023-04-25T10:53:14;4.05;;;1.52;;
50267;SDS011;36153;50.960;6.220;2023-04-25T10:59:25;4.95;;;1.75;;
50267;SDS011;36153;50.960;6.220;2023-04-25T11:02:28;4.63;;;1.73;;
50267;SDS011;36153;50.960;6.220;2023-04-25T11:05:30;3.58;;;1.50;;
50267;SDS011;36153;50.960;6.220;2023-04-25T11:08:37;3.47;;;0.95;;
50267;SDS011;36153;50.960;6.220;2023-04-25T11:15:05;2.72;;;1.50;;
50267;SDS011;36153;50.960;6.220;2023-04-25T11:18:06;5.03;;;1.88;;
50267;SDS011;36153;50.960;6.220;2023-04-25T11:21:06;4.05;;;1.15;;
50267;SDS011;36153;50.960;6.220;2023-04-25T11:24:07;1.90;;;1.00;;
50267;SDS011;36153;50.960;6.220;2023-04-25T11:27:08;5.50;;;1.17;;
50267;SDS011;36153;50.960;6.220;2023-04-25T11:30:12;1.70;;;0.80;;
50267;SDS011;36153;50.960;6.220;2023-04-25T11:33:14;2.95;;;1.52;;
50267;SDS011;36153;50.960;6.220;2023-04-25T11:36:15;5.20;;;1.27;;
50267;SDS011;36153;50.960;6.220;2023-04-25T11:39:19;4.95;;;1.60;;
50267;SDS011;36153;50.960;6.220;2023-04-25T11:42:20;4.93;;;1.30;;
50267;SDS011;36153;50.960;6.220;2023-04-25T11:45:20;3.45;;;1.35;;
50267;SDS011;36153;50.960;6.220;2023-04-25T11:48:22;3.40;;;1.33;;
50267;SDS011;36153;50.960;6.220;2023-04-25T11:51:25;6.45;;;1.45;;
50267;SDS011;36153;50.960;6.220;2023-04-25T11:54:26;1.75;;;1.20;;
50267;SDS011;36153;50.960;6.220;2023-04-25T11:57:26;3.72;;;1.15;;
50267;SDS011;36153;50.960;6.220;2023-04-25T12:00:27;3.25;;;1.13;;
50267;SDS011;36153;50.960;6.220;2023-04-25T12:03:29;3.22;;;1.30;;
50267;SDS011;36153;50.960;6.220;2023-04-25T12:06:33;3.85;;;1.73;;
50267;SDS011;36153;50.960;6.220;2023-04-25T12:09:38;3.78;;;1.30;;
50267;SDS011;36153;50.960;6.220;2023-04-25T12:12:47;4.70;;;1.25;;
50267;SDS011;36153;50.960;6.220;2023-04-25T12:15:48;2.95;;;1.23;;
50267;SDS011;36153;50.960;6.220;2023-04-25T12:18:51;4.07;;;1.13;;
50267;SDS011;36153;50.960;6.220;2023-04-25T12:24:52;4.33;;;1.33;;
50267;SDS011;36153;50.960;6.220;2023-04-25T12:27:53;4.55;;;1.60;;
50267;SDS011;36153;50.960;6.220;2023-04-25T12:33:55;5.40;;;1.98;;
50267;SDS011;36153;50.960;6.220;2023-04-25T12:36:57;5.75;;;1.30;;
50267;SDS011;36153;50.960;6.220;2023-04-25T12:39:57;3.55;;;1.20;;
50267;SDS011;36153;50.960;6.220;2023-04-25T12:42:57;3.75;;;1.50;;
50267;SDS011;36153;50.960;6.220;2023-04-25T12:46:01;5.60;;;1.70;;
50267;SDS011;36153;50.960;6.220;2023-04-25T12:49:01;8.02;;;2.00;;
50267;SDS011;36153;50.960;6.220;2023-04-25T12:52:03;2.17;;;1.10;;
50267;SDS011;36153;50.960;6.220;2023-04-25T12:55:04;6.10;;;1.75;;
50267;SDS011;36153;50.960;6.220;2023-04-25T12:58:05;6.55;;;1.70;;
50267;SDS011;36153;50.960;6.220;2023-04-25T13:01:06;2.70;;;1.45;;
50267;SDS011;36153;50.960;6.220;2023-04-25T13:04:09;2.20;;;1.15;;
50267;SDS011;36153;50.960;6.220;2023-04-25T13:07:25;3.95;;;1.20;;
50267;SDS011;36153;50.960;6.220;2023-04-25T13:10:26;3.45;;;1.70;;
50267;SDS011;36153;50.960;6.220;2023-04-25T13:13:26;5.53;;;1.33;;
50267;SDS011;36153;50.960;6.220;2023-04-25T13:16:27;1.88;;;0.82;;
50267;SDS011;36153;50.960;6.220;2023-04-25T13:19:30;4.10;;;1.33;;
50267;SDS011;36153;50.960;6.220;2023-04-25T13:22:33;4.75;;;1.25;;
50267;SDS011;36153;50.960;6.220;2023-04-25T13:25:34;2.50;;;1.50;;
50267;SDS011;36153;50.960;6.220;2023-04-25T13:28:34;3.50;;;1.20;;
50267;SDS011;36153;50.960;6.220;2023-04-25T13:31:35;5.90;;;0.90;;
50267;SDS011;36153;50.960;6.220;2023-04-25T13:34:35;4.10;;;1.30;;
50267;SDS011;36153;50.960;6.220;2023-04-25T13:37:35;2.40;;;0.88;;
50267;SDS011;36153;50.960;6.220;2023-04-25T13:40:42;4.85;;;1.17;;
50267;SDS011;36153;50.960;6.220;2023-04-25T13:43:45;2.22;;;0.98;;
50267;SDS011;36153;50.960;6.220;2023-04-25T13:46:47;4.95;;;0.88;;
50267;SDS011;36153;50.960;6.220;2023-04-25T13:49:47;3.47;;;1.17;;
50267;SDS011;36153;50.960;6.220;2023-04-25T13:52:48;5.20;;;1.27;;
50267;SDS011;36153;50.960;6.220;2023-04-25T13:55:48;2.13;;;0.95;;
50267;SDS011;36153;50.960;6.220;2023-04-25T13:58:50;3.13;;;1.20;;
50267;SDS011;36153;50.960;6.220;2023-04-25T14:01:51;3.50;;;1.20;;
50267;SDS011;36153;50.960;6.220;2023-04-25T14:04:52;3.92;;;1.17;;
50267;SDS011;36153;50.960;6.220;2023-04-25T14:07:52;1.98;;;1.02;;
50267;SDS011;36153;50.960;6.220;2023-04-25T14:10:52;3.08;;;1.00;;
50267;SDS011;36153;50.960;6.220;2023-04-25T14:13:53;4.72;;;1.00;;
50267;SDS011;36153;50.960;6.220;2023-04-25T14:16:53;3.22;;;1.27;;
50267;SDS011;36153;50.960;6.220;2023-04-25T14:19:54;2.75;;;1.10;;
50267;SDS011;36153;50.960;6.220;2023-04-25T14:22:54;3.20;;;1.33;;
50267;SDS011;36153;50.960;6.220;2023-04-25T14:25:57;5.65;;;1.17;;
50267;SDS011;36153;50.960;6.220;2023-04-25T14:28:57;2.13;;;0.93;;
50267;SDS011;36153;50.960;6.220;2023-04-25T14:31:57;2.90;;;0.65;;
50267;SDS011;36153;50.960;6.220;2023-04-25T14:34:59;1.63;;;0.82;;
50267;SDS011;36153;50.960;6.220;2023-04-25T14:37:59;3.58;;;0.80;;
50267;SDS011;36153;50.960;6.220;2023-04-25T14:41:00;2.60;;;0.85;;
50267;SDS011;36153;50.960;6.220;2023-04-25T14:44:01;3.63;;;0.50;;
50267;SDS011;36153;50.960;6.220;2023-04-25T14:47:01;2.72;;;0.43;;
50267;SDS011;36153;50.960;6.220;2023-04-25T14:50:02;3.13;;;0.65;;
50267;SDS011;36153;50.960;6.220;2023-04-25T14:53:02;2.33;;;0.80;;
50267;SDS011;36153;50.960;6.220;2023-04-25T14:56:03;2.28;;;0.90;;
50267;SDS011;36153;50.960;6.220;2023-04-25T14:59:03;5.43;;;0.98;;
50267;SDS011;36153;50.960;6.220;2023-04-25T15:02:04;3.30;;;0.80;;
50267;SDS011;36153;50.960;6.220;2023-04-25T15:05:05;3.47;;;0.90;;
50267;SDS011;36153;50.960;6.220;2023-04-25T15:08:06;3.17;;;0.75;;
50267;SDS011;36153;50.960;6.220;2023-04-25T15:11:06;2.17;;;1.00;;
50267;SDS011;36153;50.960;6.220;2023-04-25T15:14:06;2.50;;;0.80;;
50267;SDS011;36153;50.960;6.220;2023-04-25T15:17:07;2.22;;;0.82;;
50267;SDS011;36153;50.960;6.220;2023-04-25T15:20:08;2.80;;;0.77;;
50267;SDS011;36153;50.960;6.220;2023-04-25T15:23:10;2.88;;;0.90;;
50267;SDS011;36153;50.960;6.220;2023-04-25T15:26:11;1.58;;;0.47;;
50267;SDS011;36153;50.960;6.220;2023-04-25T15:29:11;3.22;;;0.70;;
50267;SDS011;36153;50.960;6.220;2023-04-25T15:32:12;2.58;;;0.60;;
50267;SDS011;36153;50.960;6.220;2023-04-25T15:35:13;3.67;;;0.70;;
50267;SDS011;36153;50.960;6.220;2023-04-25T15:38:14;2.70;;;1.27;;
50267;SDS011;36153;50.960;6.220;2023-04-25T15:41:15;3.20;;;0.80;;
50267;SDS011;36153;50.960;6.220;2023-04-25T15:44:15;3.25;;;0.60;;
50267;SDS011;36153;50.960;6.220;2023-04-25T15:47:16;0.80;;;0.60;;
50267;SDS011;36153;50.960;6.220;2023-04-25T15:50:16;2.45;;;0.70;;
50267;SDS011;36153;50.960;6.220;2023-04-25T15:53:16;2.95;;;0.68;;
50267;SDS011;36153;50.960;6.220;2023-04-25T15:56:17;4.80;;;0.95;;
50267;SDS011;36153;50.960;6.220;2023-04-25T15:59:17;3.28;;;0.68;;
50267;SDS011;36153;50.960;6.220;2023-04-25T16:02:18;4.03;;;0.73;;
50267;SDS011;36153;50.960;6.220;2023-04-25T16:05:18;1.25;;;0.68;;
50267;SDS011;36153;50.960;6.220;2023-04-25T16:08:19;4.38;;;0.80;;
50267;SDS011;36153;50.960;6.220;2023-04-25T16:11:20;2.75;;;0.57;;
50267;SDS011;36153;50.960;6.220;2023-04-25T16:14:20;1.17;;;0.60;;
50267;SDS011;36153;50.960;6.220;2023-04-25T16:17:20;2.80;;;0.73;;
50267;SDS011;36153;50.960;6.220;2023-04-25T16:20:21;2.22;;;0.60;;
50267;SDS011;36153;50.960;6.220;2023-04-25T16:23:21;2.67;;;0.77;;
50267;SDS011;36153;50.960;6.220;2023-04-25T16:26:22;4.85;;;0.60;;
50267;SDS011;36153;50.960;6.220;2023-04-25T16:29:22;2.50;;;0.80;;
50267;SDS011;36153;50.960;6.220;2023-04-25T16:32:22;2.65;;;0.60;;
50267;SDS011;36153;50.960;6.220;2023-04-25T16:35:23;1.45;;;0.88;;
50267;SDS011;36153;50.960;6.220;2023-04-25T16:38:23;3.17;;;0.60;;
50267;SDS011;36153;50.960;6.220;2023-04-25T16:41:24;3.55;;;0.80;;
50267;SDS011;36153;50.960;6.220;2023-04-25T16:44:24;1.05;;;0.70;;
50267;SDS011;36153;50.960;6.220;2023-04-25T16:47:24;2.90;;;0.73;;
50267;SDS011;36153;50.960;6.220;2023-04-25T16:50:25;2.88;;;0.80;;
50267;SDS011;36153;50.960;6.220;2023-04-25T16:53:26;1.95;;;0.98;;
50267;SDS011;36153;50.960;6.220;2023-04-25T16:56:26;3.67;;;1.27;;
50267;SDS011;36153;50.960;6.220;2023-04-25T16:59:27;3.95;;;1.08;;
50267;SDS011;36153;50.960;6.220;2023-04-25T17:02:27;3.10;;;1.58;;
50267;SDS011;36153;50.960;6.220;2023-04-25T17:05:27;2.42;;;1.42;;
50267;SDS011;36153;50.960;6.220;2023-04-25T17:08:28;2.75;;;1.58;;
50267;SDS011;36153;50.960;6.220;2023-04-25T17:11:28;4.88;;;1.23;;
50267;SDS011;36153;50.960;6.220;2023-04-25T17:14:29;1.75;;;1.15;;
50267;SDS011;36153;50.960;6.220;2023-04-25T17:17:32;6.10;;;2.05;;
50267;SDS011;36153;50.960;6.220;2023-04-25T17:20:32;4.43;;;1.17;;
50267;SDS011;36153;50.960;6.220;2023-04-25T17:23:32;5.45;;;1.95;;
50267;SDS011;36153;50.960;6.220;2023-04-25T17:26:33;4.07;;;2.05;;
50267;SDS011;36153;50.960;6.220;2023-04-25T17:29:35;4.47;;;2.22;;
50267;SDS011;36153;50.960;6.220;2023-04-25T17:32:35;3.67;;;1.67;;
50267;SDS011;36153;50.960;6.220;2023-04-25T17:35:36;7.90;;;2.65;;
50267;SDS011;36153;50.960;6.220;2023-04-25T17:38:36;2.75;;;1.33;;
50267;SDS011;36153;50.960;6.220;2023-04-25T17:41:38;5.72;;;2.20;;
50267;SDS011;36153;50.960;6.220;2023-04-25T17:44:38;3.95;;;1.25;;
50267;SDS011;36153;50.960;6.220;2023-04-25T17:47:38;4.78;;;2.17;;
50267;SDS011;36153;50.960;6.220;2023-04-25T17:50:39;6.88;;;1.90;;
50267;SDS011;36153;50.960;6.220;2023-04-25T17:53:40;2.88;;;1.10;;
50267;SDS011;36153;50.960;6.220;2023-04-25T17:56:40;4.65;;;1.42;;
50267;SDS011;36153;50.960;6.220;2023-04-25T17:59:41;6.25;;;1.25;;
50267;SDS011;36153;50.960;6.220;2023-04-25T18:02:41;6.30;;;1.48;;
50267;SDS011;36153;50.960;6.220;2023-04-25T18:05:44;3.80;;;1.88;;
50267;SDS011;36153;50.960;6.220;2023-04-25T18:08:45;3.53;;;1.20;;
50267;SDS011;36153;50.960;6.220;2023-04-25T18:11:46;5.57;;;1.60;;
50267;SDS011;36153;50.960;6.220;2023-04-25T18:14:47;6.00;;;1.38;;
50267;SDS011;36153;50.960;6.220;2023-04-25T18:17:47;3.72;;;1.70;;
50267;SDS011;36153;50.960;6.220;2023-04-25T18:20:50;5.30;;;1.90;;
50267;SDS011;36153;50.960;6.220;2023-04-25T18:23:52;2.72;;;1.50;;
50267;SDS011;36153;50.960;6.220;2023-04-25T18:26:52;2.75;;;1.08;;
50267;SDS011;36153;50.960;6.220;2023-04-25T18:29:59;2.75;;;1.33;;